sensor_id;sensor_type;location;lat;lon;timestamp;P1;durP1;ratioP1;P2;durP2;ratioP2
54555;SDS011;57291;37.520;15.106;2023-07-09T00:01:44;17.50;;;8.68;;
54555;SDS011;57291;37.520;15.106;2023-07-09T00:04:12;14.05;;;8.23;;
54555;SDS011;57291;37.520;15.106;2023-07-09T00:06:39;15.57;;;9.02;;
54555;SDS011;57291;37.520;15.106;2023-07-09T00:09:17;17.13;;;8.80;;
54555;SDS011;57291;37.520;15.106;2023-07-09T00:11:46;13.85;;;8.50;;
54555;SDS011;57291;37.520;15.106;2023-07-09T00:14:14;16.27;;;8.93;;
54555;SDS011;57291;37.520;15.106;2023-07-09T00:16:44;15.45;;;9.10;;
54555;SDS011;57291;37.520;15.106;2023-07-09T00:19:16;18.15;;;8.90;;
54555;SDS011;57291;37.520;15.106;2023-07-09T00:21:47;13.45;;;9.20;;
54555;SDS011;57291;37.520;15.106;2023-07-09T00:24:18;15.55;;;9.32;;
54555;SDS011;57291;37.520;15.106;2023-07-09T00:26:45;17.65;;;8.80;;
54555;SDS011;57291;37.520;15.106;2023-07-09T00:29:16;12.73;;;8.55;;
54555;SDS011;57291;37.520;15.106;2023-07-09T00:31:43;12.27;;;7.72;;
54555;SDS011;57291;37.520;15.106;2023-07-09T00:34:13;12.40;;;7.88;;
54555;SDS011;57291;37.520;15.106;2023-07-09T00:36:42;13.02;;;7.63;;
54555;SDS011;57291;37.520;15.106;2023-07-09T00:39:17;11.30;;;7.00;;
54555;SDS011;57291;37.520;15.106;2023-07-09T00:41:49;8.63;;;6.47;;
54555;SDS011;57291;37.520;15.106;2023-07-09T00:44:23;14.75;;;7.13;;
54555;SDS011;57291;37.520;15.106;2023-07-09T00:49:31;12.95;;;7.82;;
54555;SDS011;57291;37.520;15.106;2023-07-09T00:52:02;15.70;;;7.20;;
54555;SDS011;57291;37.520;15.106;2023-07-09T00:54:41;11.23;;;7.13;;
54555;SDS011;57291;37.520;15.106;2023-07-09T00:57:14;19.90;;;8.43;;
54555;SDS011;57291;37.520;15.106;2023-07-09T01:02:16;12.82;;;7.70;;
54555;SDS011;57291;37.520;15.106;2023-07-09T01:04:55;14.73;;;9.70;;
54555;SDS011;57291;37.520;15.106;2023-07-09T01:07:29;9.93;;;7.40;;
54555;SDS011;57291;37.520;15.106;2023-07-09T01:09:57;12.52;;;8.65;;
54555;SDS011;57291;37.520;15.106;2023-07-09T01:12:24;14.63;;;8.88;;
54555;SDS011;57291;37.520;15.106;2023-07-09T01:14:53;11.25;;;8.10;;
54555;SDS011;57291;37.520;15.106;2023-07-09T01:17:26;11.75;;;7.80;;
54555;SDS011;57291;37.520;15.106;2023-07-09T01:19:55;14.98;;;8.98;;
54555;SDS011;57291;37.520;15.106;2023-07-09T01:22:23;14.57;;;9.00;;
54555;SDS011;57291;37.520;15.106;2023-07-09T01:27:30;15.52;;;10.35;;
54555;SDS011;57291;37.520;15.106;2023-07-09T01:30:04;15.57;;;9.68;;
54555;SDS011;57291;37.520;15.106;2023-07-09T01:32:36;15.68;;;10.27;;
54555;SDS011;57291;37.520;15.106;2023-07-09T01:35:06;14.30;;;9.77;;
54555;SDS011;57291;37.520;15.106;2023-07-09T01:37:35;14.85;;;9.00;;
54555;SDS011;57291;37.520;15.106;2023-07-09T01:40:04;22.48;;;10.45;;
54555;SDS011;57291;37.520;15.106;2023-07-09T01:42:53;14.30;;;9.75;;
54555;SDS011;57291;37.520;15.106;2023-07-09T01:45:22;13.43;;;8.82;;
54555;SDS011;57291;37.520;15.106;2023-07-09T01:47:49;14.85;;;9.82;;
54555;SDS011;57291;37.520;15.106;2023-07-09T01:50:16;14.52;;;9.07;;
54555;SDS011;57291;37.520;15.106;2023-07-09T01:52:44;16.88;;;9.93;;
54555;SDS011;57291;37.520;15.106;2023-07-09T01:55:13;17.52;;;11.50;;
54555;SDS011;57291;37.520;15.106;2023-07-09T01:57:43;17.75;;;11.23;;
54555;SDS011;57291;37.520;15.106;2023-07-09T02:00:13;16.63;;;10.80;;
54555;SDS011;57291;37.520;15.106;2023-07-09T02:02:43;18.52;;;11.77;;
54555;SDS011;57291;37.520;15.106;2023-07-09T02:07:44;19.77;;;10.60;;
54555;SDS011;57291;37.520;15.106;2023-07-09T02:10:12;20.92;;;12.15;;
54555;SDS011;57291;37.520;15.106;2023-07-09T02:12:43;15.95;;;11.90;;
54555;SDS011;57291;37.520;15.106;2023-07-09T02:15:10;24.05;;;16.88;;
54555;SDS011;57291;37.520;15.106;2023-07-09T02:17:38;27.02;;;14.73;;
54555;SDS011;57291;37.520;15.106;2023-07-09T02:20:06;22.23;;;12.45;;
54555;SDS011;57291;37.520;15.106;2023-07-09T02:22:34;18.65;;;12.00;;
54555;SDS011;57291;37.520;15.106;2023-07-09T02:25:02;15.38;;;10.35;;
54555;SDS011;57291;37.520;15.106;2023-07-09T02:27:31;16.05;;;10.95;;
54555;SDS011;57291;37.520;15.106;2023-07-09T02:29:59;16.13;;;10.15;;
54555;SDS011;57291;37.520;15.106;2023-07-09T02:32:26;15.27;;;10.45;;
54555;SDS011;57291;37.520;15.106;2023-07-09T02:34:54;14.73;;;9.55;;
54555;SDS011;57291;37.520;15.106;2023-07-09T02:37:23;16.45;;;10.10;;
54555;SDS011;57291;37.520;15.106;2023-07-09T02:39:51;18.35;;;10.13;;
54555;SDS011;57291;37.520;15.106;2023-07-09T02:42:20;15.45;;;9.25;;
54555;SDS011;57291;37.520;15.106;2023-07-09T02:44:49;18.98;;;10.15;;
54555;SDS011;57291;37.520;15.106;2023-07-09T02:47:17;19.50;;;11.07;;
54555;SDS011;57291;37.520;15.106;2023-07-09T02:49:47;16.55;;;11.57;;
54555;SDS011;57291;37.520;15.106;2023-07-09T02:52:15;17.33;;;11.35;;
54555;SDS011;57291;37.520;15.106;2023-07-09T02:54:42;26.08;;;12.93;;
54555;SDS011;57291;37.520;15.106;2023-07-09T02:57:10;16.25;;;10.68;;
54555;SDS011;57291;37.520;15.106;2023-07-09T02:59:38;13.88;;;9.98;;
54555;SDS011;57291;37.520;15.106;2023-07-09T03:02:05;17.13;;;9.85;;
54555;SDS011;57291;37.520;15.106;2023-07-09T03:04:33;15.70;;;10.77;;
54555;SDS011;57291;37.520;15.106;2023-07-09T03:07:00;18.73;;;11.00;;
54555;SDS011;57291;37.520;15.106;2023-07-09T03:09:28;18.52;;;10.30;;
54555;SDS011;57291;37.520;15.106;2023-07-09T03:11:55;14.30;;;10.43;;
54555;SDS011;57291;37.520;15.106;2023-07-09T03:14:22;15.88;;;10.57;;
54555;SDS011;57291;37.520;15.106;2023-07-09T03:16:50;16.65;;;9.75;;
54555;SDS011;57291;37.520;15.106;2023-07-09T03:19:17;17.60;;;10.18;;
54555;SDS011;57291;37.520;15.106;2023-07-09T03:21:44;18.33;;;10.45;;
54555;SDS011;57291;37.520;15.106;2023-07-09T03:24:11;18.48;;;11.32;;
54555;SDS011;57291;37.520;15.106;2023-07-09T03:26:41;18.85;;;11.23;;
54555;SDS011;57291;37.520;15.106;2023-07-09T03:29:09;16.73;;;11.52;;
54555;SDS011;57291;37.520;15.106;2023-07-09T03:31:36;20.13;;;11.95;;
54555;SDS011;57291;37.520;15.106;2023-07-09T03:34:03;17.20;;;11.35;;
54555;SDS011;57291;37.520;15.106;2023-07-09T03:36:31;18.40;;;11.85;;
54555;SDS011;57291;37.520;15.106;2023-07-09T03:38:58;17.65;;;11.60;;
54555;SDS011;57291;37.520;15.106;2023-07-09T03:41:25;20.60;;;12.73;;
54555;SDS011;57291;37.520;15.106;2023-07-09T03:43:52;20.05;;;11.52;;
54555;SDS011;57291;37.520;15.106;2023-07-09T03:46:20;21.17;;;12.60;;
54555;SDS011;57291;37.520;15.106;2023-07-09T03:48:47;20.05;;;12.40;;
54555;SDS011;57291;37.520;15.106;2023-07-09T03:51:17;24.10;;;12.25;;
54555;SDS011;57291;37.520;15.106;2023-07-09T03:53:44;20.85;;;12.32;;
54555;SDS011;57291;37.520;15.106;2023-07-09T03:56:12;19.17;;;11.65;;
54555;SDS011;57291;37.520;15.106;2023-07-09T03:58:39;19.63;;;11.05;;
54555;SDS011;57291;37.520;15.106;2023-07-09T04:01:06;19.38;;;11.73;;
54555;SDS011;57291;37.520;15.106;2023-07-09T04:03:33;16.52;;;10.70;;
54555;SDS011;57291;37.520;15.106;2023-07-09T04:06:00;19.95;;;11.15;;
54555;SDS011;57291;37.520;15.106;2023-07-09T04:08:28;17.08;;;10.07;;
54555;SDS011;57291;37.520;15.106;2023-07-09T04:10:58;17.35;;;9.32;;
54555;SDS011;57291;37.520;15.106;2023-07-09T04:13:26;16.50;;;8.65;;
54555;SDS011;57291;37.520;15.106;2023-07-09T04:15:55;14.60;;;8.90;;
54555;SDS011;57291;37.520;15.106;2023-07-09T04:18:23;12.32;;;8.68;;
54555;SDS011;57291;37.520;15.106;2023-07-09T04:20:51;13.65;;;9.13;;
54555;SDS011;57291;37.520;15.106;2023-07-09T04:23:19;20.05;;;8.90;;
54555;SDS011;57291;37.520;15.106;2023-07-09T04:25:46;18.00;;;10.00;;
54555;SDS011;57291;37.520;15.106;2023-07-09T04:28:14;12.43;;;8.57;;
54555;SDS011;57291;37.520;15.106;2023-07-09T04:30:48;13.13;;;8.63;;
54555;SDS011;57291;37.520;15.106;2023-07-09T04:33:18;13.75;;;8.30;;
54555;SDS011;57291;37.520;15.106;2023-07-09T04:35:46;16.73;;;9.05;;
54555;SDS011;57291;37.520;15.106;2023-07-09T04:38:15;11.85;;;7.88;;
54555;SDS011;57291;37.520;15.106;2023-07-09T04:40:44;18.67;;;8.75;;
54555;SDS011;57291;37.520;15.106;2023-07-09T04:43:13;19.85;;;9.75;;
54555;SDS011;57291;37.520;15.106;2023-07-09T04:45:40;15.98;;;8.55;;
54555;SDS011;57291;37.520;15.106;2023-07-09T04:48:07;17.13;;;9.20;;
54555;SDS011;57291;37.520;15.106;2023-07-09T04:50:34;14.57;;;8.90;;
54555;SDS011;57291;37.520;15.106;2023-07-09T04:53:01;14.45;;;8.73;;
54555;SDS011;57291;37.520;15.106;2023-07-09T04:55:30;15.05;;;8.02;;
54555;SDS011;57291;37.520;15.106;2023-07-09T04:57:57;15.45;;;8.32;;
54555;SDS011;57291;37.520;15.106;2023-07-09T05:00:24;14.55;;;8.20;;
54555;SDS011;57291;37.520;15.106;2023-07-09T05:02:51;13.50;;;7.70;;
54555;SDS011;57291;37.520;15.106;2023-07-09T05:05:19;14.52;;;7.63;;
54555;SDS011;57291;37.520;15.106;2023-07-09T05:07:46;13.45;;;7.28;;
54555;SDS011;57291;37.520;15.106;2023-07-09T05:10:13;12.07;;;7.80;;
54555;SDS011;57291;37.520;15.106;2023-07-09T05:12:51;10.90;;;6.70;;
54555;SDS011;57291;37.520;15.106;2023-07-09T05:15:21;11.70;;;7.45;;
54555;SDS011;57291;37.520;15.106;2023-07-09T05:17:49;11.85;;;7.45;;
54555;SDS011;57291;37.520;15.106;2023-07-09T05:20:16;9.50;;;6.80;;
54555;SDS011;57291;37.520;15.106;2023-07-09T05:22:43;15.32;;;8.25;;
54555;SDS011;57291;37.520;15.106;2023-07-09T05:25:11;15.43;;;7.75;;
54555;SDS011;57291;37.520;15.106;2023-07-09T05:27:38;13.50;;;7.97;;
54555;SDS011;57291;37.520;15.106;2023-07-09T05:30:06;9.60;;;6.25;;
54555;SDS011;57291;37.520;15.106;2023-07-09T05:32:33;11.80;;;6.43;;
54555;SDS011;57291;37.520;15.106;2023-07-09T05:35:00;11.07;;;6.18;;
54555;SDS011;57291;37.520;15.106;2023-07-09T05:37:28;11.25;;;6.30;;
54555;SDS011;57291;37.520;15.106;2023-07-09T05:39:55;12.85;;;6.60;;
54555;SDS011;57291;37.520;15.106;2023-07-09T05:42:24;11.93;;;6.45;;
54555;SDS011;57291;37.520;15.106;2023-07-09T05:44:51;11.52;;;7.18;;
54555;SDS011;57291;37.520;15.106;2023-07-09T05:47:18;11.40;;;7.55;;
54555;SDS011;57291;37.520;15.106;2023-07-09T05:49:46;17.30;;;7.85;;
54555;SDS011;57291;37.520;15.106;2023-07-09T05:52:18;14.40;;;7.90;;
54555;SDS011;57291;37.520;15.106;2023-07-09T05:54:48;14.68;;;8.23;;
54555;SDS011;57291;37.520;15.106;2023-07-09T05:57:17;13.52;;;7.88;;
54555;SDS011;57291;37.520;15.106;2023-07-09T05:59:44;11.30;;;6.57;;
54555;SDS011;57291;37.520;15.106;2023-07-09T06:02:12;12.70;;;6.57;;
54555;SDS011;57291;37.520;15.106;2023-07-09T06:04:40;15.60;;;5.93;;
54555;SDS011;57291;37.520;15.106;2023-07-09T06:07:09;11.13;;;6.20;;
54555;SDS011;57291;37.520;15.106;2023-07-09T06:09:36;9.63;;;5.65;;
54555;SDS011;57291;37.520;15.106;2023-07-09T06:12:04;10.82;;;5.43;;
54555;SDS011;57291;37.520;15.106;2023-07-09T06:14:32;10.82;;;5.35;;
54555;SDS011;57291;37.520;15.106;2023-07-09T06:16:59;8.18;;;5.28;;
54555;SDS011;57291;37.520;15.106;2023-07-09T06:19:27;8.15;;;5.25;;
54555;SDS011;57291;37.520;15.106;2023-07-09T06:21:54;6.78;;;4.47;;
54555;SDS011;57291;37.520;15.106;2023-07-09T06:24:24;8.25;;;4.80;;
54555;SDS011;57291;37.520;15.106;2023-07-09T06:26:51;10.43;;;4.82;;
54555;SDS011;57291;37.520;15.106;2023-07-09T06:29:18;8.98;;;4.97;;
54555;SDS011;57291;37.520;15.106;2023-07-09T06:31:46;7.22;;;4.68;;
54555;SDS011;57291;37.520;15.106;2023-07-09T06:34:13;7.50;;;4.63;;
54555;SDS011;57291;37.520;15.106;2023-07-09T06:36:40;8.05;;;4.32;;
54555;SDS011;57291;37.520;15.106;2023-07-09T06:39:10;8.48;;;4.63;;
54555;SDS011;57291;37.520;15.106;2023-07-09T06:41:37;9.65;;;4.40;;
54555;SDS011;57291;37.520;15.106;2023-07-09T06:44:08;9.35;;;4.07;;
54555;SDS011;57291;37.520;15.106;2023-07-09T06:46:36;7.60;;;3.97;;
54555;SDS011;57291;37.520;15.106;2023-07-09T06:49:03;9.10;;;3.70;;
54555;SDS011;57291;37.520;15.106;2023-07-09T06:51:33;9.38;;;3.90;;
54555;SDS011;57291;37.520;15.106;2023-07-09T06:54:01;9.05;;;4.47;;
54555;SDS011;57291;37.520;15.106;2023-07-09T06:56:28;9.90;;;4.97;;
54555;SDS011;57291;37.520;15.106;2023-07-09T06:58:56;12.57;;;4.70;;
54555;SDS011;57291;37.520;15.106;2023-07-09T07:01:23;10.50;;;4.57;;
54555;SDS011;57291;37.520;15.106;2023-07-09T07:03:50;7.00;;;4.47;;
54555;SDS011;57291;37.520;15.106;2023-07-09T07:06:17;9.65;;;4.18;;
54555;SDS011;57291;37.520;15.106;2023-07-09T07:08:45;7.72;;;3.83;;
54555;SDS011;57291;37.520;15.106;2023-07-09T07:11:12;6.82;;;4.10;;
54555;SDS011;57291;37.520;15.106;2023-07-09T07:13:40;8.85;;;4.20;;
54555;SDS011;57291;37.520;15.106;2023-07-09T07:16:10;8.82;;;4.25;;
54555;SDS011;57291;37.520;15.106;2023-07-09T07:18:38;11.27;;;4.28;;
54555;SDS011;57291;37.520;15.106;2023-07-09T07:21:06;7.80;;;4.25;;
54555;SDS011;57291;37.520;15.106;2023-07-09T07:23:33;5.60;;;3.58;;
54555;SDS011;57291;37.520;15.106;2023-07-09T07:26:00;6.40;;;3.80;;
54555;SDS011;57291;37.520;15.106;2023-07-09T07:28:29;7.07;;;3.53;;
54555;SDS011;57291;37.520;15.106;2023-07-09T07:31:00;6.63;;;3.85;;
54555;SDS011;57291;37.520;15.106;2023-07-09T07:33:28;6.68;;;3.72;;
54555;SDS011;57291;37.520;15.106;2023-07-09T07:35:55;7.22;;;3.97;;
54555;SDS011;57291;37.520;15.106;2023-07-09T07:38:43;6.65;;;3.75;;
54555;SDS011;57291;37.520;15.106;2023-07-09T07:41:10;11.57;;;4.07;;
54555;SDS011;57291;37.520;15.106;2023-07-09T07:43:38;10.70;;;4.60;;
54555;SDS011;57291;37.520;15.106;2023-07-09T07:46:06;8.85;;;4.00;;
54555;SDS011;57291;37.520;15.106;2023-07-09T07:48:35;8.88;;;4.00;;
54555;SDS011;57291;37.520;15.106;2023-07-09T07:54:09;10.05;;;4.40;;
54555;SDS011;57291;37.520;15.106;2023-07-09T07:56:36;10.27;;;4.40;;
54555;SDS011;57291;37.520;15.106;2023-07-09T07:59:06;7.75;;;4.57;;
54555;SDS011;57291;37.520;15.106;2023-07-09T08:01:34;9.68;;;4.35;;
54555;SDS011;57291;37.520;15.106;2023-07-09T08:04:02;7.78;;;4.75;;
54555;SDS011;57291;37.520;15.106;2023-07-09T08:06:30;9.40;;;4.28;;
54555;SDS011;57291;37.520;15.106;2023-07-09T08:08:58;10.88;;;4.85;;
54555;SDS011;57291;37.520;15.106;2023-07-09T08:11:25;8.07;;;4.70;;
54555;SDS011;57291;37.520;15.106;2023-07-09T08:13:54;11.02;;;4.57;;
54555;SDS011;57291;37.520;15.106;2023-07-09T08:16:22;6.88;;;3.97;;
54555;SDS011;57291;37.520;15.106;2023-07-09T08:18:49;8.35;;;4.68;;
54555;SDS011;57291;37.520;15.106;2023-07-09T08:21:18;10.75;;;4.25;;
54555;SDS011;57291;37.520;15.106;2023-07-09T08:23:45;9.90;;;4.85;;
54555;SDS011;57291;37.520;15.106;2023-07-09T08:26:13;8.32;;;4.95;;
54555;SDS011;57291;37.520;15.106;2023-07-09T08:28:40;11.60;;;4.80;;
54555;SDS011;57291;37.520;15.106;2023-07-09T08:31:07;11.43;;;4.72;;
54555;SDS011;57291;37.520;15.106;2023-07-09T08:33:35;11.38;;;4.60;;
54555;SDS011;57291;37.520;15.106;2023-07-09T08:36:02;9.23;;;4.78;;
54555;SDS011;57291;37.520;15.106;2023-07-09T08:38:30;11.95;;;5.18;;
54555;SDS011;57291;37.520;15.106;2023-07-09T08:41:08;11.60;;;4.80;;
54555;SDS011;57291;37.520;15.106;2023-07-09T08:50:30;10.38;;;4.85;;
54555;SDS011;57291;37.520;15.106;2023-07-09T08:52:39;8.38;;;4.57;;
54555;SDS011;57291;37.520;15.106;2023-07-09T08:55:14;14.23;;;5.07;;
54555;SDS011;57291;37.520;15.106;2023-07-09T08:57:44;10.40;;;4.93;;
54555;SDS011;57291;37.520;15.106;2023-07-09T09:00:16;11.20;;;4.70;;
54555;SDS011;57291;37.520;15.106;2023-07-09T09:02:55;10.40;;;4.80;;
54555;SDS011;57291;37.520;15.106;2023-07-09T09:05:32;10.65;;;4.90;;
54555;SDS011;57291;37.520;15.106;2023-07-09T09:08:08;7.85;;;4.60;;
54555;SDS011;57291;37.520;15.106;2023-07-09T09:14:16;10.77;;;5.15;;
54555;SDS011;57291;37.520;15.106;2023-07-09T09:16:57;9.73;;;5.07;;
54555;SDS011;57291;37.520;15.106;2023-07-09T09:19:29;8.38;;;4.82;;
54555;SDS011;57291;37.520;15.106;2023-07-09T09:22:13;9.98;;;4.80;;
54555;SDS011;57291;37.520;15.106;2023-07-09T09:27:21;10.57;;;5.13;;
54555;SDS011;57291;37.520;15.106;2023-07-09T09:29:48;10.43;;;4.72;;
54555;SDS011;57291;37.520;15.106;2023-07-09T09:34:52;8.65;;;4.93;;
54555;SDS011;57291;37.520;15.106;2023-07-09T09:37:26;10.75;;;5.35;;
54555;SDS011;57291;37.520;15.106;2023-07-09T09:39:55;9.20;;;5.00;;
54555;SDS011;57291;37.520;15.106;2023-07-09T09:42:38;11.02;;;5.28;;
54555;SDS011;57291;37.520;15.106;2023-07-09T09:45:14;10.15;;;5.50;;
54555;SDS011;57291;37.520;15.106;2023-07-09T09:47:45;15.75;;;5.18;;
54555;SDS011;57291;37.520;15.106;2023-07-09T09:50:19;12.52;;;5.30;;
54555;SDS011;57291;37.520;15.106;2023-07-09T09:52:48;9.45;;;5.65;;
54555;SDS011;57291;37.520;15.106;2023-07-09T09:55:20;12.43;;;5.43;;
54555;SDS011;57291;37.520;15.106;2023-07-09T09:57:51;9.88;;;5.50;;
54555;SDS011;57291;37.520;15.106;2023-07-09T10:00:24;10.68;;;5.25;;
54555;SDS011;57291;37.520;15.106;2023-07-09T10:02:57;10.35;;;5.43;;
54555;SDS011;57291;37.520;15.106;2023-07-09T10:05:34;8.50;;;5.13;;
54555;SDS011;57291;37.520;15.106;2023-07-09T10:10:53;8.45;;;4.72;;
54555;SDS011;57291;37.520;15.106;2023-07-09T10:13:32;12.98;;;4.93;;
54555;SDS011;57291;37.520;15.106;2023-07-09T10:16:07;11.75;;;5.20;;
54555;SDS011;57291;37.520;15.106;2023-07-09T10:18:45;12.25;;;5.53;;
54555;SDS011;57291;37.520;15.106;2023-07-09T10:21:39;10.32;;;5.43;;
54555;SDS011;57291;37.520;15.106;2023-07-09T10:35:22;12.13;;;5.05;;
54555;SDS011;57291;37.520;15.106;2023-07-09T10:38:03;12.80;;;5.03;;
54555;SDS011;57291;37.520;15.106;2023-07-09T10:40:54;15.02;;;5.50;;
54555;SDS011;57291;37.520;15.106;2023-07-09T10:43:54;9.40;;;4.38;;
54555;SDS011;57291;37.520;15.106;2023-07-09T10:46:28;8.10;;;4.07;;
54555;SDS011;57291;37.520;15.106;2023-07-09T10:48:59;8.63;;;5.10;;
54555;SDS011;57291;37.520;15.106;2023-07-09T10:51:36;7.07;;;4.25;;
54555;SDS011;57291;37.520;15.106;2023-07-09T10:57:14;8.55;;;4.95;;
54555;SDS011;57291;37.520;15.106;2023-07-09T10:59:49;10.23;;;5.97;;
54555;SDS011;57291;37.520;15.106;2023-07-09T11:07:38;11.35;;;5.15;;
54555;SDS011;57291;37.520;15.106;2023-07-09T11:10:07;9.40;;;5.25;;
54555;SDS011;57291;37.520;15.106;2023-07-09T11:15:34;13.82;;;5.63;;
54555;SDS011;57291;37.520;15.106;2023-07-09T11:18:07;11.68;;;5.55;;
54555;SDS011;57291;37.520;15.106;2023-07-09T11:20:42;11.15;;;5.50;;
54555;SDS011;57291;37.520;15.106;2023-07-09T11:26:00;11.15;;;5.38;;
54555;SDS011;57291;37.520;15.106;2023-07-09T11:28:39;10.48;;;5.10;;
54555;SDS011;57291;37.520;15.106;2023-07-09T11:31:21;11.23;;;5.47;;
54555;SDS011;57291;37.520;15.106;2023-07-09T11:44:57;8.43;;;4.93;;
54555;SDS011;57291;37.520;15.106;2023-07-09T11:47:33;11.82;;;5.38;;
54555;SDS011;57291;37.520;15.106;2023-07-09T11:50:05;11.45;;;5.15;;
54555;SDS011;57291;37.520;15.106;2023-07-09T11:52:48;10.00;;;5.47;;
54555;SDS011;57291;37.520;15.106;2023-07-09T11:57:55;9.90;;;5.20;;
54555;SDS011;57291;37.520;15.106;2023-07-09T12:00:45;11.50;;;5.70;;
54555;SDS011;57291;37.520;15.106;2023-07-09T12:03:20;10.50;;;5.45;;
54555;SDS011;57291;37.520;15.106;2023-07-09T12:05:54;10.15;;;4.95;;
54555;SDS011;57291;37.520;15.106;2023-07-09T12:08:36;7.63;;;4.82;;
54555;SDS011;57291;37.520;15.106;2023-07-09T12:11:05;9.07;;;5.63;;
54555;SDS011;57291;37.520;15.106;2023-07-09T12:13:37;13.02;;;5.65;;
54555;SDS011;57291;37.520;15.106;2023-07-09T12:18:56;11.68;;;5.00;;
54555;SDS011;57291;37.520;15.106;2023-07-09T12:21:24;11.45;;;4.90;;
54555;SDS011;57291;37.520;15.106;2023-07-09T12:23:55;9.38;;;5.43;;
54555;SDS011;57291;37.520;15.106;2023-07-09T12:26:25;12.57;;;5.32;;
54555;SDS011;57291;37.520;15.106;2023-07-09T12:28:57;11.75;;;5.30;;
54555;SDS011;57291;37.520;15.106;2023-07-09T12:31:26;8.95;;;5.38;;
54555;SDS011;57291;37.520;15.106;2023-07-09T12:33:56;11.98;;;5.32;;
54555;SDS011;57291;37.520;15.106;2023-07-09T12:36:25;10.00;;;5.15;;
54555;SDS011;57291;37.520;15.106;2023-07-09T12:38:55;14.32;;;5.32;;
54555;SDS011;57291;37.520;15.106;2023-07-09T12:41:38;11.35;;;5.38;;
54555;SDS011;57291;37.520;15.106;2023-07-09T12:44:15;8.70;;;4.95;;
54555;SDS011;57291;37.520;15.106;2023-07-09T12:46:47;11.77;;;5.70;;
54555;SDS011;57291;37.520;15.106;2023-07-09T12:49:24;10.65;;;5.40;;
54555;SDS011;57291;37.520;15.106;2023-07-09T12:51:56;10.90;;;5.05;;
54555;SDS011;57291;37.520;15.106;2023-07-09T12:54:25;9.00;;;5.43;;
54555;SDS011;57291;37.520;15.106;2023-07-09T12:56:55;7.22;;;4.78;;
54555;SDS011;57291;37.520;15.106;2023-07-09T12:59:36;12.00;;;5.35;;
54555;SDS011;57291;37.520;15.106;2023-07-09T13:04:36;8.45;;;5.57;;
54555;SDS011;57291;37.520;15.106;2023-07-09T13:07:17;11.65;;;5.45;;
54555;SDS011;57291;37.520;15.106;2023-07-09T13:09:52;10.27;;;5.28;;
54555;SDS011;57291;37.520;15.106;2023-07-09T13:12:22;10.60;;;5.28;;
54555;SDS011;57291;37.520;15.106;2023-07-09T13:14:55;14.15;;;5.30;;
54555;SDS011;57291;37.520;15.106;2023-07-09T13:17:30;10.55;;;5.97;;
54555;SDS011;57291;37.520;15.106;2023-07-09T13:19:58;12.40;;;5.20;;
54555;SDS011;57291;37.520;15.106;2023-07-09T13:22:27;10.68;;;5.30;;
54555;SDS011;57291;37.520;15.106;2023-07-09T13:24:55;6.93;;;4.68;;
54555;SDS011;57291;37.520;15.106;2023-07-09T13:27:22;9.52;;;5.22;;
54555;SDS011;57291;37.520;15.106;2023-07-09T13:29:50;7.97;;;4.70;;
54555;SDS011;57291;37.520;15.106;2023-07-09T13:32:17;9.82;;;5.15;;
54555;SDS011;57291;37.520;15.106;2023-07-09T13:34:45;9.95;;;5.55;;
54555;SDS011;57291;37.520;15.106;2023-07-09T13:37:14;10.43;;;4.75;;
54555;SDS011;57291;37.520;15.106;2023-07-09T13:39:42;8.75;;;4.97;;
54555;SDS011;57291;37.520;15.106;2023-07-09T13:42:12;9.02;;;4.25;;
54555;SDS011;57291;37.520;15.106;2023-07-09T13:44:44;7.97;;;4.80;;
54555;SDS011;57291;37.520;15.106;2023-07-09T13:47:15;9.65;;;5.05;;
54555;SDS011;57291;37.520;15.106;2023-07-09T13:49:45;11.57;;;5.13;;
54555;SDS011;57291;37.520;15.106;2023-07-09T13:52:17;10.15;;;4.70;;
54555;SDS011;57291;37.520;15.106;2023-07-09T13:54:47;9.07;;;5.72;;
54555;SDS011;57291;37.520;15.106;2023-07-09T13:57:16;9.15;;;5.22;;
54555;SDS011;57291;37.520;15.106;2023-07-09T13:59:46;10.10;;;4.93;;
54555;SDS011;57291;37.520;15.106;2023-07-09T14:02:21;12.30;;;5.28;;
54555;SDS011;57291;37.520;15.106;2023-07-09T14:04:51;10.00;;;4.95;;
54555;SDS011;57291;37.520;15.106;2023-07-09T14:07:38;7.95;;;5.00;;
54555;SDS011;57291;37.520;15.106;2023-07-09T14:10:09;10.10;;;5.15;;
54555;SDS011;57291;37.520;15.106;2023-07-09T14:15:18;9.30;;;4.93;;
54555;SDS011;57291;37.520;15.106;2023-07-09T14:17:47;8.73;;;4.97;;
54555;SDS011;57291;37.520;15.106;2023-07-09T14:20:15;9.90;;;4.80;;
54555;SDS011;57291;37.520;15.106;2023-07-09T14:22:43;9.13;;;4.90;;
54555;SDS011;57291;37.520;15.106;2023-07-09T14:25:18;7.72;;;4.93;;
54555;SDS011;57291;37.520;15.106;2023-07-09T14:27:53;12.50;;;5.43;;
54555;SDS011;57291;37.520;15.106;2023-07-09T14:30:22;10.88;;;4.93;;
54555;SDS011;57291;37.520;15.106;2023-07-09T14:32:54;8.68;;;4.32;;
54555;SDS011;57291;37.520;15.106;2023-07-09T14:35:22;9.88;;;4.82;;
54555;SDS011;57291;37.520;15.106;2023-07-09T14:37:51;11.43;;;4.88;;
54555;SDS011;57291;37.520;15.106;2023-07-09T14:40:20;10.75;;;5.50;;
54555;SDS011;57291;37.520;15.106;2023-07-09T14:42:48;10.35;;;4.32;;
54555;SDS011;57291;37.520;15.106;2023-07-09T14:45:23;12.55;;;5.07;;
54555;SDS011;57291;37.520;15.106;2023-07-09T14:47:52;6.97;;;4.32;;
54555;SDS011;57291;37.520;15.106;2023-07-09T14:50:21;8.52;;;4.60;;
54555;SDS011;57291;37.520;15.106;2023-07-09T14:52:49;8.02;;;4.50;;
54555;SDS011;57291;37.520;15.106;2023-07-09T14:55:19;9.65;;;4.60;;
54555;SDS011;57291;37.520;15.106;2023-07-09T14:57:48;7.93;;;4.28;;
54555;SDS011;57291;37.520;15.106;2023-07-09T15:00:16;11.73;;;5.07;;
54555;SDS011;57291;37.520;15.106;2023-07-09T15:02:46;9.63;;;4.88;;
54555;SDS011;57291;37.520;15.106;2023-07-09T15:05:20;12.93;;;4.93;;
54555;SDS011;57291;37.520;15.106;2023-07-09T15:07:49;7.82;;;4.82;;
54555;SDS011;57291;37.520;15.106;2023-07-09T15:10:18;9.40;;;4.45;;
54555;SDS011;57291;37.520;15.106;2023-07-09T15:12:50;8.95;;;4.38;;
54555;SDS011;57291;37.520;15.106;2023-07-09T15:15:23;11.23;;;4.47;;
54555;SDS011;57291;37.520;15.106;2023-07-09T15:17:52;10.60;;;5.22;;
54555;SDS011;57291;37.520;15.106;2023-07-09T15:20:25;8.18;;;4.65;;
54555;SDS011;57291;37.520;15.106;2023-07-09T15:22:55;9.52;;;4.68;;
54555;SDS011;57291;37.520;15.106;2023-07-09T15:25:25;7.95;;;4.32;;
54555;SDS011;57291;37.520;15.106;2023-07-09T15:27:54;11.57;;;5.25;;
54555;SDS011;57291;37.520;15.106;2023-07-09T15:30:25;10.50;;;4.80;;
54555;SDS011;57291;37.520;15.106;2023-07-09T15:32:57;12.40;;;4.78;;
54555;SDS011;57291;37.520;15.106;2023-07-09T15:35:34;9.57;;;4.70;;
54555;SDS011;57291;37.520;15.106;2023-07-09T15:38:12;9.20;;;4.30;;
54555;SDS011;57291;37.520;15.106;2023-07-09T15:40:48;8.70;;;4.45;;
54555;SDS011;57291;37.520;15.106;2023-07-09T15:43:16;8.02;;;4.78;;
54555;SDS011;57291;37.520;15.106;2023-07-09T15:45:45;9.93;;;4.65;;
54555;SDS011;57291;37.520;15.106;2023-07-09T15:48:25;7.18;;;4.72;;
54555;SDS011;57291;37.520;15.106;2023-07-09T15:51:00;9.73;;;4.50;;
54555;SDS011;57291;37.520;15.106;2023-07-09T15:53:30;7.47;;;4.10;;
54555;SDS011;57291;37.520;15.106;2023-07-09T15:55:59;9.20;;;4.75;;
54555;SDS011;57291;37.520;15.106;2023-07-09T15:58:32;7.38;;;4.15;;
54555;SDS011;57291;37.520;15.106;2023-07-09T16:01:05;9.18;;;4.47;;